Time;durP1;ratioP1;P1;durP2;ratioP2;P2;SDS_P1;SDS_P2;PMS_P1;PMS_P2;Temp;Humidity;BMP_temperature;BMP_pressure;BME280_temperature;BME280_humidity;BME280_pressure;Samples;Min_cycle;Max_cycle;Signal;HPM_P1;HPM_P2
2023/12/21 00:01:20;;;;;;;14.63;2.90;;;;;;;;;;4962928;28;99157;-76
2023/12/21 00:03:46;;;;;;;12.07;3.25;;;;;;;;;;4960559;28;100266;-75
2023/12/21 00:06:13;;;;;;;13.02;2.50;;;;;;;;;;4971101;28;98369;-75
2023/12/21 00:08:39;;;;;;;8.77;2.45;;;;;;;;;;4961911;28;99522;-74
2023/12/21 00:11:06;;;;;;;8.60;2.30;;;;;;;;;;4959364;28;98976;-74
2023/12/21 00:13:32;;;;;;;11.50;3.05;;;;;;;;;;4963167;28;99528;-75
2023/12/21 00:15:59;;;;;;;14.57;2.85;;;;;;;;;;4961491;28;100164;-75
2023/12/21 00:18:25;;;;;;;16.08;3.22;;;;;;;;;;4966443;28;98856;-74
2023/12/21 00:20:52;;;;;;;12.43;2.40;;;;;;;;;;4967682;28;99441;-75
2023/12/21 00:23:19;;;;;;;5.63;2.10;;;;;;;;;;4958728;28;99040;-75
2023/12/21 00:25:46;;;;;;;4.65;2.25;;;;;;;;;;4961787;28;98309;-74
2023/12/21 00:28:12;;;;;;;8.55;2.05;;;;;;;;;;4964555;28;98871;-75
2023/12/21 00:30:39;;;;;;;7.80;2.17;;;;;;;;;;4963668;28;99293;-74
2023/12/21 00:33:05;;;;;;;9.80;2.65;;;;;;;;;;4959970;28;100621;-74
2023/12/21 00:35:32;;;;;;;14.93;2.95;;;;;;;;;;4964277;28;99609;-74
2023/12/21 00:38:00;;;;;;;8.73;2.13;;;;;;;;;;4957953;28;98176;-74
2023/12/21 00:40:26;;;;;;;9.20;2.88;;;;;;;;;;4959506;28;100141;-74
2023/12/21 00:42:53;;;;;;;6.57;2.17;;;;;;;;;;4963567;28;99029;-74
2023/12/21 00:45:19;;;;;;;12.80;2.80;;;;;;;;;;4963195;28;99791;-74
2023/12/21 00:47:46;;;;;;;11.07;2.67;;;;;;;;;;4963362;28;99397;-74
2023/12/21 00:50:13;;;;;;;5.60;2.00;;;;;;;;;;4970041;28;99932;-76
2023/12/21 00:52:39;;;;;;;4.80;2.45;;;;;;;;;;4967149;28;99275;-76
2023/12/21 00:55:06;;;;;;;10.10;2.22;;;;;;;;;;4965497;28;99863;-75
2023/12/21 00:57:33;;;;;;;7.90;1.88;;;;;;;;;;4973839;28;98342;-74
2023/12/21 00:59:59;;;;;;;13.20;2.05;;;;;;;;;;4987184;28;98687;-74
2023/12/21 01:02:25;;;;;;;13.38;2.03;;;;;;;;;;4986590;28;99956;-74
2023/12/21 01:04:52;;;;;;;7.72;2.28;;;;;;;;;;4987274;28;98499;-75
2023/12/21 01:07:18;;;;;;;10.38;2.63;;;;;;;;;;4986641;28;99836;-76
2023/12/21 01:09:45;;;;;;;9.98;3.28;;;;;;;;;;4987011;28;100033;-76
2023/12/21 01:12:11;;;;;;;11.90;2.45;;;;;;;;;;4990250;28;98244;-75
2023/12/21 01:14:38;;;;;;;8.25;2.33;;;;;;;;;;4985316;28;99995;-74
2023/12/21 01:17:04;;;;;;;7.03;1.65;;;;;;;;;;4986406;28;98292;-75
2023/12/21 01:19:31;;;;;;;12.30;2.97;;;;;;;;;;4965429;28;99288;-75
2023/12/21 01:21:57;;;;;;;9.35;2.17;;;;;;;;;;4989271;28;99911;-75
2023/12/21 01:24:24;;;;;;;8.88;2.03;;;;;;;;;;4965202;28;98286;-75
2023/12/21 01:26:50;;;;;;;9.32;3.35;;;;;;;;;;4960283;28;99504;-73
2023/12/21 01:29:17;;;;;;;18.65;2.25;;;;;;;;;;4954822;28;100018;-75
2023/12/21 01:31:43;;;;;;;15.10;2.85;;;;;;;;;;4958774;28;98658;-75
2023/12/21 01:34:09;;;;;;;9.90;2.15;;;;;;;;;;4966808;28;99414;-75
2023/12/21 01:36:36;;;;;;;10.90;2.22;;;;;;;;;;4960442;28;100339;-75
2023/12/21 01:39:03;;;;;;;16.40;2.88;;;;;;;;;;4966861;28;100277;-73
2023/12/21 01:41:29;;;;;;;6.95;1.80;;;;;;;;;;4960373;28;99299;-75
2023/12/21 01:43:56;;;;;;;7.20;2.10;;;;;;;;;;4964594;28;99392;-73
2023/12/21 01:46:23;;;;;;;11.68;2.20;;;;;;;;;;4956904;28;99390;-75
2023/12/21 01:48:50;;;;;;;17.25;3.67;;;;;;;;;;4967284;28;100498;-74
2023/12/21 01:51:18;;;;;;;9.32;2.00;;;;;;;;;;4964976;28;99083;-74
2023/12/21 01:53:44;;;;;;;5.60;2.13;;;;;;;;;;4958400;28;99545;-74
2023/12/21 01:56:11;;;;;;;11.80;2.17;;;;;;;;;;4970153;28;100125;-74
2023/12/21 01:58:37;;;;;;;6.50;1.63;;;;;;;;;;4966396;28;99091;-75
2023/12/21 02:01:04;;;;;;;5.75;1.95;;;;;;;;;;4963317;28;100012;-74
2023/12/21 02:03:31;;;;;;;9.32;2.17;;;;;;;;;;4961814;28;99207;-74
2023/12/21 02:05:57;;;;;;;4.78;1.88;;;;;;;;;;4961207;28;99450;-74
2023/12/21 02:08:24;;;;;;;6.80;1.92;;;;;;;;;;4963189;28;99548;-75
2023/12/21 02:10:56;;;;;;;5.32;2.10;;;;;;;;;;4958774;28;100060;-75
2023/12/21 02:13:22;;;;;;;4.90;1.73;;;;;;;;;;4962629;28;99262;-74
2023/12/21 02:15:49;;;;;;;4.43;1.25;;;;;;;;;;4966635;28;100184;-75
2023/12/21 02:18:16;;;;;;;9.35;2.03;;;;;;;;;;4966580;28;99457;-73
2023/12/21 02:20:43;;;;;;;4.50;1.77;;;;;;;;;;4963108;28;101121;-74
2023/12/21 02:23:10;;;;;;;3.65;1.83;;;;;;;;;;4967255;28;98362;-74
2023/12/21 02:25:37;;;;;;;4.80;1.60;;;;;;;;;;4958858;28;99622;-73
2023/12/21 02:28:03;;;;;;;8.23;2.75;;;;;;;;;;4956962;28;100132;-74
2023/12/21 02:30:30;;;;;;;6.13;2.25;;;;;;;;;;4963834;28;98844;-75
2023/12/21 02:32:57;;;;;;;7.63;1.77;;;;;;;;;;4961478;28;99544;-75
2023/12/21 02:35:23;;;;;;;8.98;1.98;;;;;;;;;;4962407;28;99708;-75
2023/12/21 02:37:49;;;;;;;2.67;1.17;;;;;;;;;;4966642;28;99338;-73
2023/12/21 02:40:16;;;;;;;6.70;1.92;;;;;;;;;;4958940;28;99188;-75
2023/12/21 02:42:42;;;;;;;13.27;2.55;;;;;;;;;;4964637;28;99630;-74
2023/12/21 02:45:09;;;;;;;7.75;2.45;;;;;;;;;;4968954;28;99401;-75
2023/12/21 02:47:35;;;;;;;5.68;1.83;;;;;;;;;;4967676;28;99519;-74
2023/12/21 02:50:02;;;;;;;13.63;2.20;;;;;;;;;;4969017;28;98377;-73
2023/12/21 02:52:28;;;;;;;11.48;2.10;;;;;;;;;;4968105;28;98538;-76
2023/12/21 02:54:55;;;;;;;10.77;2.10;;;;;;;;;;4968666;28;100398;-74
2023/12/21 02:57:21;;;;;;;9.20;1.83;;;;;;;;;;4960678;28;99050;-74
2023/12/21 02:59:48;;;;;;;4.28;1.67;;;;;;;;;;4962387;28;100144;-74
2023/12/21 03:02:15;;;;;;;10.43;2.33;;;;;;;;;;4960621;28;98913;-74
2023/12/21 03:04:41;;;;;;;12.82;2.58;;;;;;;;;;4965871;28;99358;-75
2023/12/21 03:07:08;;;;;;;16.30;2.40;;;;;;;;;;4958068;28;99973;-73
2023/12/21 03:09:35;;;;;;;5.25;1.50;;;;;;;;;;4963515;28;98275;-74
2023/12/21 03:12:01;;;;;;;7.72;2.08;;;;;;;;;;4960887;28;99480;-74
2023/12/21 03:14:27;;;;;;;7.05;2.03;;;;;;;;;;4958334;28;99921;-73
2023/12/21 03:16:54;;;;;;;6.68;1.88;;;;;;;;;;4961741;28;99546;-74
2023/12/21 03:19:20;;;;;;;6.05;1.75;;;;;;;;;;4962003;28;99449;-75
2023/12/21 03:21:47;;;;;;;14.02;2.90;;;;;;;;;;4965118;28;100017;-74
2023/12/21 03:24:14;;;;;;;8.27;3.13;;;;;;;;;;4960123;28;98715;-75
2023/12/21 03:26:41;;;;;;;5.03;2.00;;;;;;;;;;4963157;28;99226;-75
2023/12/21 03:29:08;;;;;;;6.45;2.17;;;;;;;;;;4961405;28;99949;-73
2023/12/21 03:31:34;;;;;;;4.80;1.60;;;;;;;;;;4962268;28;98850;-74
2023/12/21 03:34:01;;;;;;;4.55;1.98;;;;;;;;;;4961892;28;99354;-74
2023/12/21 03:36:27;;;;;;;9.68;3.15;;;;;;;;;;4963543;28;98886;-74
2023/12/21 03:38:54;;;;;;;5.05;1.48;;;;;;;;;;4960739;28;98783;-75
2023/12/21 03:41:21;;;;;;;4.78;1.60;;;;;;;;;;4963908;28;100017;-74
2023/12/21 03:43:47;;;;;;;4.68;1.63;;;;;;;;;;4968100;28;98604;-74
2023/12/21 03:46:14;;;;;;;11.82;3.10;;;;;;;;;;4964562;28;99187;-73
2023/12/21 03:48:40;;;;;;;9.18;2.60;;;;;;;;;;4957970;28;99112;-74
2023/12/21 03:51:07;;;;;;;9.52;1.90;;;;;;;;;;4956704;28;98736;-73
2023/12/21 03:53:33;;;;;;;6.68;2.22;;;;;;;;;;4963301;28;100363;-74
2023/12/21 03:56:00;;;;;;;8.55;1.67;;;;;;;;;;4960865;28;98262;-74
2023/12/21 03:58:26;;;;;;;5.20;1.88;;;;;;;;;;4962547;28;99856;-74
2023/12/21 04:00:52;;;;;;;9.45;1.77;;;;;;;;;;4958924;28;100072;-73
2023/12/21 04:03:19;;;;;;;7.75;2.05;;;;;;;;;;4960456;28;99449;-74
2023/12/21 04:05:45;;;;;;;10.45;2.40;;;;;;;;;;4971845;28;99684;-75
2023/12/21 04:08:13;;;;;;;11.38;2.25;;;;;;;;;;4964472;28;99923;-75
2023/12/21 04:10:39;;;;;;;8.10;3.15;;;;;;;;;;4960930;28;99441;-74
2023/12/21 04:13:05;;;;;;;7.97;1.90;;;;;;;;;;4960017;28;100315;-74
2023/12/21 04:15:32;;;;;;;12.38;3.30;;;;;;;;;;4960155;28;98211;-73
2023/12/21 04:17:58;;;;;;;5.50;2.35;;;;;;;;;;4961474;28;98694;-75
2023/12/21 04:20:25;;;;;;;8.48;2.40;;;;;;;;;;4959376;28;100164;-75
2023/12/21 04:22:53;;;;;;;3.38;1.73;;;;;;;;;;4962846;28;98578;-74
2023/12/21 04:25:19;;;;;;;10.10;2.55;;;;;;;;;;4959927;28;99977;-73
2023/12/21 04:27:46;;;;;;;11.18;2.50;;;;;;;;;;4962676;28;99671;-74
2023/12/21 04:30:12;;;;;;;8.70;1.85;;;;;;;;;;4963223;28;99446;-74
2023/12/21 04:32:40;;;;;;;12.57;1.80;;;;;;;;;;4957864;28;99253;-74
2023/12/21 04:35:10;;;;;;;9.90;1.73;;;;;;;;;;4960166;28;99125;-74
2023/12/21 04:37:36;;;;;;;10.45;3.25;;;;;;;;;;4961939;28;99982;-75
2023/12/21 04:40:03;;;;;;;9.90;2.08;;;;;;;;;;4962299;28;99937;-73
2023/12/21 04:42:30;;;;;;;5.32;1.65;;;;;;;;;;4959987;28;98239;-74
2023/12/21 04:44:56;;;;;;;10.82;3.15;;;;;;;;;;4966387;28;99510;-73
2023/12/21 04:47:23;;;;;;;9.93;2.30;;;;;;;;;;4970278;28;100316;-73
2023/12/21 04:49:50;;;;;;;7.53;2.47;;;;;;;;;;4967202;28;98291;-74
2023/12/21 04:52:16;;;;;;;5.78;1.85;;;;;;;;;;4965886;28;99002;-74
2023/12/21 04:54:43;;;;;;;9.20;2.08;;;;;;;;;;4968173;28;98998;-75
2023/12/21 04:57:09;;;;;;;10.63;2.28;;;;;;;;;;4986854;28;99413;-74
2023/12/21 04:59:40;;;;;;;12.85;2.55;;;;;;;;;;4986557;28;100080;-76
2023/12/21 05:02:07;;;;;;;6.50;2.00;;;;;;;;;;4967825;28;98166;-75
2023/12/21 05:04:33;;;;;;;4.57;1.20;;;;;;;;;;4967643;28;99295;-76
2023/12/21 05:07:01;;;;;;;4.28;1.60;;;;;;;;;;4966730;28;99550;-74
2023/12/21 05:09:28;;;;;;;9.45;1.65;;;;;;;;;;4969925;28;98252;-73
2023/12/21 05:11:55;;;;;;;7.18;2.25;;;;;;;;;;4967451;28;98977;-73
2023/12/21 05:14:21;;;;;;;6.80;1.77;;;;;;;;;;4966088;28;98227;-75
2023/12/21 05:16:48;;;;;;;6.43;1.67;;;;;;;;;;4966829;28;99548;-76
2023/12/21 05:19:14;;;;;;;9.98;1.55;;;;;;;;;;4963023;28;99594;-73
2023/12/21 05:21:44;;;;;;;8.07;2.60;;;;;;;;;;4957837;28;98484;-74
2023/12/21 05:24:11;;;;;;;2.20;1.10;;;;;;;;;;4962955;28;100587;-74
2023/12/21 05:26:38;;;;;;;3.72;1.73;;;;;;;;;;4959729;28;100753;-74
2023/12/21 05:29:05;;;;;;;8.82;1.92;;;;;;;;;;4958158;28;98921;-75
2023/12/21 05:31:31;;;;;;;1.52;1.13;;;;;;;;;;4964944;28;99818;-74
2023/12/21 05:33:57;;;;;;;13.98;2.95;;;;;;;;;;4964686;28;98587;-74
2023/12/21 05:36:24;;;;;;;4.45;1.25;;;;;;;;;;4960484;28;99572;-74
2023/12/21 05:38:53;;;;;;;8.00;1.55;;;;;;;;;;4962533;28;99893;-74
2023/12/21 05:41:20;;;;;;;7.05;1.95;;;;;;;;;;4960940;28;98983;-75
2023/12/21 05:43:48;;;;;;;7.65;2.20;;;;;;;;;;4967350;28;98644;-76
2023/12/21 05:46:15;;;;;;;3.80;1.63;;;;;;;;;;4962968;28;99934;-75
2023/12/21 05:48:41;;;;;;;7.38;2.20;;;;;;;;;;4966711;28;98640;-74
2023/12/21 05:51:08;;;;;;;8.10;1.92;;;;;;;;;;4958064;28;99769;-75
2023/12/21 05:53:34;;;;;;;6.03;1.38;;;;;;;;;;4965133;28;100221;-76
2023/12/21 05:56:02;;;;;;;4.88;1.98;;;;;;;;;;4960071;28;99704;-74
2023/12/21 05:58:30;;;;;;;2.00;1.30;;;;;;;;;;4961522;28;100782;-75
2023/12/21 06:00:56;;;;;;;1.23;1.10;;;;;;;;;;4957708;28;99600;-75
2023/12/21 06:03:23;;;;;;;4.60;1.83;;;;;;;;;;4962942;28;100327;-75
2023/12/21 06:05:50;;;;;;;10.15;1.52;;;;;;;;;;4959455;28;99550;-74
2023/12/21 06:08:16;;;;;;;6.90;1.50;;;;;;;;;;4963933;28;99305;-76
2023/12/21 06:10:43;;;;;;;4.70;1.58;;;;;;;;;;4960131;28;99982;-74
2023/12/21 06:13:10;;;;;;;7.15;1.73;;;;;;;;;;4963043;28;100082;-75
2023/12/21 06:15:36;;;;;;;2.92;1.40;;;;;;;;;;4966387;28;99333;-77
2023/12/21 06:18:03;;;;;;;5.90;1.90;;;;;;;;;;4960441;28;100238;-77
2023/12/21 06:20:30;;;;;;;3.78;1.73;;;;;;;;;;4964611;28;99920;-75
2023/12/21 06:22:56;;;;;;;4.78;1.58;;;;;;;;;;4962494;28;99456;-75
2023/12/21 06:25:23;;;;;;;5.00;1.40;;;;;;;;;;4958647;28;99050;-75
2023/12/21 06:27:49;;;;;;;7.32;1.67;;;;;;;;;;4962082;28;98726;-77
2023/12/21 06:30:16;;;;;;;4.97;1.45;;;;;;;;;;4961243;28;100126;-76
2023/12/21 06:32:42;;;;;;;1.77;1.30;;;;;;;;;;4962018;28;100109;-79
2023/12/21 06:35:09;;;;;;;6.13;1.63;;;;;;;;;;4963241;27;100822;-78
2023/12/21 06:37:36;;;;;;;4.47;1.58;;;;;;;;;;4962823;28;99093;-78
2023/12/21 06:40:04;;;;;;;10.63;2.05;;;;;;;;;;4957673;28;99871;-75
2023/12/21 06:42:31;;;;;;;6.75;1.67;;;;;;;;;;4961692;28;99598;-75
2023/12/21 06:44:57;;;;;;;3.25;1.75;;;;;;;;;;4968044;28;100104;-77
2023/12/21 06:47:24;;;;;;;4.80;1.95;;;;;;;;;;4968603;28;98586;-75
2023/12/21 06:49:50;;;;;;;3.42;1.55;;;;;;;;;;4960907;28;100181;-74
2023/12/21 06:52:17;;;;;;;10.40;1.90;;;;;;;;;;4961923;28;98997;-76
2023/12/21 06:54:43;;;;;;;10.18;2.72;;;;;;;;;;4965626;28;99778;-74
2023/12/21 06:57:10;;;;;;;11.18;2.50;;;;;;;;;;4964935;28;99621;-75
2023/12/21 06:59:37;;;;;;;9.82;2.25;;;;;;;;;;4966619;28;99630;-75
2023/12/21 07:02:03;;;;;;;11.93;2.55;;;;;;;;;;4968349;28;99545;-75
2023/12/21 07:04:30;;;;;;;5.35;2.50;;;;;;;;;;4981250;28;99341;-75
2023/12/21 07:06:58;;;;;;;11.55;2.75;;;;;;;;;;4964688;28;99169;-76
2023/12/21 07:09:24;;;;;;;7.07;2.22;;;;;;;;;;4958622;28;99920;-75
2023/12/21 07:11:51;;;;;;;8.23;2.20;;;;;;;;;;4960460;28;100101;-76
2023/12/21 07:14:17;;;;;;;16.98;3.28;;;;;;;;;;4963762;28;99062;-78
2023/12/21 07:16:43;;;;;;;3.72;1.65;;;;;;;;;;4969343;28;100274;-74
2023/12/21 07:19:10;;;;;;;4.65;1.70;;;;;;;;;;4971763;28;100155;-77
2023/12/21 07:21:36;;;;;;;11.90;3.03;;;;;;;;;;4968199;28;99656;-77
2023/12/21 07:24:03;;;;;;;8.77;1.73;;;;;;;;;;4968400;28;99931;-77
2023/12/21 07:26:30;;;;;;;10.82;2.47;;;;;;;;;;4968631;28;98293;-76
2023/12/21 07:28:56;;;;;;;8.57;2.53;;;;;;;;;;4980217;28;99628;-77
2023/12/21 07:31:22;;;;;;;5.07;1.80;;;;;;;;;;4963755;28;99945;-78
2023/12/21 07:33:50;;;;;;;6.25;2.13;;;;;;;;;;4968555;28;98225;-77
2023/12/21 07:36:17;;;;;;;1.83;1.10;;;;;;;;;;4963509;28;98982;-77
2023/12/21 07:38:43;;;;;;;4.85;1.27;;;;;;;;;;4958717;28;100765;-76
2023/12/21 07:41:13;;;;;;;4.13;2.33;;;;;;;;;;4962754;28;98354;-77
2023/12/21 07:43:41;;;;;;;4.22;1.80;;;;;;;;;;4957856;28;100122;-77
2023/12/21 07:46:08;;;;;;;5.40;2.15;;;;;;;;;;4961881;28;99899;-78
2023/12/21 07:48:35;;;;;;;4.00;1.60;;;;;;;;;;4957415;28;99071;-77
2023/12/21 07:51:01;;;;;;;6.28;1.85;;;;;;;;;;4961098;28;99193;-76
2023/12/21 07:53:28;;;;;;;8.30;2.70;;;;;;;;;;4958788;28;98251;-78
2023/12/21 07:55:54;;;;;;;3.65;1.50;;;;;;;;;;4961102;28;99898;-77
2023/12/21 07:58:21;;;;;;;6.50;1.70;;;;;;;;;;4965126;28;100469;-78
2023/12/21 08:00:47;;;;;;;2.58;1.45;;;;;;;;;;4964425;28;98232;-76
2023/12/21 08:03:14;;;;;;;4.63;1.40;;;;;;;;;;4960202;28;101024;-76
2023/12/21 08:05:40;;;;;;;8.95;2.03;;;;;;;;;;4952495;28;98289;-77
2023/12/21 08:08:07;;;;;;;6.72;1.75;;;;;;;;;;4953944;28;99435;-76
2023/12/21 08:10:33;;;;;;;4.50;1.83;;;;;;;;;;4987542;28;99942;-76
2023/12/21 08:13:01;;;;;;;4.32;1.80;;;;;;;;;;4988331;28;98152;-76
2023/12/21 08:15:32;;;;;;;7.93;1.92;;;;;;;;;;4988563;28;98750;-75
2023/12/21 08:17:59;;;;;;;3.35;2.05;;;;;;;;;;4986500;28;100058;-78
2023/12/21 08:20:27;;;;;;;4.68;1.70;;;;;;;;;;4977190;28;98143;-80
2023/12/21 08:22:53;;;;;;;6.07;1.65;;;;;;;;;;4987331;28;99384;-76
2023/12/21 08:25:20;;;;;;;5.85;1.48;;;;;;;;;;4989577;28;98988;-75
2023/12/21 08:27:47;;;;;;;8.68;1.60;;;;;;;;;;4963612;28;100710;-74
2023/12/21 08:30:13;;;;;;;8.93;1.83;;;;;;;;;;4947525;28;99979;-75
2023/12/21 08:32:40;;;;;;;8.18;2.30;;;;;;;;;;4963073;28;98269;-75
2023/12/21 08:35:06;;;;;;;8.05;2.53;;;;;;;;;;4960702;28;99576;-74
2023/12/21 08:37:33;;;;;;;5.95;2.00;;;;;;;;;;4958629;28;99954;-75
2023/12/21 08:39:59;;;;;;;10.32;2.40;;;;;;;;;;4967611;28;99226;-75
2023/12/21 08:42:30;;;;;;;7.60;1.85;;;;;;;;;;4960455;28;99738;-74
2023/12/21 08:44:59;;;;;;;5.18;1.40;;;;;;;;;;4965246;28;99025;-76
2023/12/21 08:47:27;;;;;;;6.93;1.75;;;;;;;;;;4975499;28;99283;-76
2023/12/21 08:49:53;;;;;;;11.90;1.60;;;;;;;;;;4987834;28;100222;-77
2023/12/21 08:52:20;;;;;;;7.95;1.88;;;;;;;;;;4985207;28;99168;-76
2023/12/21 08:54:46;;;;;;;6.47;1.63;;;;;;;;;;4987810;28;99147;-77
2023/12/21 08:57:14;;;;;;;14.48;2.13;;;;;;;;;;4984375;28;99405;-76
2023/12/21 08:59:40;;;;;;;7.68;1.98;;;;;;;;;;4991178;28;98774;-76
2023/12/21 09:02:10;;;;;;;8.52;2.42;;;;;;;;;;4987404;28;99035;-77
2023/12/21 09:04:37;;;;;;;7.13;1.60;;;;;;;;;;4988204;28;100121;-76
2023/12/21 09:07:03;;;;;;;10.10;1.65;;;;;;;;;;4992985;28;98341;-75
2023/12/21 09:09:31;;;;;;;5.88;1.20;;;;;;;;;;4990972;28;100420;-75
2023/12/21 09:11:58;;;;;;;3.40;1.17;;;;;;;;;;4966852;28;98668;-74
2023/12/21 09:14:24;;;;;;;2.55;1.70;;;;;;;;;;4967622;28;101452;-74
2023/12/21 09:16:54;;;;;;;3.60;1.08;;;;;;;;;;4968878;28;100004;-75
2023/12/21 09:19:21;;;;;;;14.63;2.95;;;;;;;;;;4969732;28;98405;-74
2023/12/21 09:21:47;;;;;;;3.95;2.33;;;;;;;;;;4970711;28;99471;-75
2023/12/21 09:24:14;;;;;;;13.40;1.58;;;;;;;;;;4970379;28;99817;-75
2023/12/21 09:26:40;;;;;;;6.82;1.60;;;;;;;;;;4970557;28;98247;-76
2023/12/21 09:29:07;;;;;;;8.30;1.45;;;;;;;;;;4974289;28;98522;-75
2023/12/21 09:31:36;;;;;;;13.05;2.05;;;;;;;;;;4971678;28;99491;-75
2023/12/21 09:34:04;;;;;;;3.08;1.33;;;;;;;;;;4983505;28;98568;-74
2023/12/21 09:36:31;;;;;;;5.32;2.42;;;;;;;;;;4970146;28;99851;-75
2023/12/21 09:38:57;;;;;;;11.38;2.22;;;;;;;;;;4976536;28;98033;-75
2023/12/21 09:41:24;;;;;;;9.77;2.17;;;;;;;;;;4969800;28;99663;-75
2023/12/21 09:43:52;;;;;;;10.38;1.70;;;;;;;;;;4982068;28;99240;-75
2023/12/21 09:46:20;;;;;;;6.07;1.92;;;;;;;;;;4970812;28;98253;-74
2023/12/21 09:48:46;;;;;;;13.45;1.92;;;;;;;;;;4982622;28;98554;-74
2023/12/21 09:51:15;;;;;;;7.30;1.55;;;;;;;;;;4984070;28;99675;-73
2023/12/21 09:53:42;;;;;;;8.93;1.33;;;;;;;;;;4982532;28;99415;-73
2023/12/21 09:56:08;;;;;;;2.90;1.65;;;;;;;;;;4968376;28;99171;-74
2023/12/21 09:58:35;;;;;;;15.52;2.10;;;;;;;;;;4964592;28;98173;-75
2023/12/21 10:01:01;;;;;;;4.90;2.25;;;;;;;;;;4972468;28;98972;-74
2023/12/21 10:03:28;;;;;;;5.07;1.30;;;;;;;;;;4969999;28;101296;-74
2023/12/21 10:05:54;;;;;;;3.30;1.08;;;;;;;;;;4981969;28;98308;-74
2023/12/21 10:08:21;;;;;;;4.95;1.52;;;;;;;;;;4979057;28;100795;-73
2023/12/21 10:10:47;;;;;;;4.88;1.23;;;;;;;;;;4967989;28;102469;-73
2023/12/21 10:13:14;;;;;;;4.13;1.38;;;;;;;;;;4973924;28;98671;-73
2023/12/21 10:15:42;;;;;;;6.35;1.48;;;;;;;;;;4980753;28;99963;-73
2023/12/21 10:18:12;;;;;;;21.38;2.78;;;;;;;;;;4979251;28;101230;-73
2023/12/21 10:20:39;;;;;;;6.88;1.55;;;;;;;;;;4984725;28;98726;-74
2023/12/21 10:23:07;;;;;;;8.30;1.52;;;;;;;;;;4982002;28;98901;-74
2023/12/21 10:25:36;;;;;;;8.60;1.67;;;;;;;;;;4975992;28;98504;-75
2023/12/21 10:28:04;;;;;;;5.63;1.17;;;;;;;;;;4980897;28;99729;-74
2023/12/21 10:30:31;;;;;;;9.32;1.85;;;;;;;;;;4983426;28;100402;-73
2023/12/21 10:32:57;;;;;;;7.13;1.48;;;;;;;;;;4984959;28;98927;-74
2023/12/21 10:35:25;;;;;;;4.32;1.55;;;;;;;;;;4985152;28;99135;-76
2023/12/21 10:37:52;;;;;;;10.63;1.88;;;;;;;;;;4984694;28;98206;-76
2023/12/21 10:40:19;;;;;;;6.82;1.55;;;;;;;;;;4974772;28;99538;-74
2023/12/21 10:42:46;;;;;;;5.95;2.13;;;;;;;;;;4968476;28;99331;-75
2023/12/21 10:45:17;;;;;;;7.07;1.40;;;;;;;;;;4964432;28;98304;-76
2023/12/21 10:48:01;;;;;;;6.00;1.90;;;;;;;;;;4984309;28;99369;-75
2023/12/21 10:50:30;;;;;;;7.30;1.60;;;;;;;;;;4988143;28;99991;-76
2023/12/21 10:52:58;;;;;;;8.63;1.83;;;;;;;;;;4949395;28;1131523;-74
2023/12/21 10:55:26;;;;;;;6.72;1.83;;;;;;;;;;4992198;28;99648;-76
2023/12/21 10:57:54;;;;;;;5.53;1.70;;;;;;;;;;4982959;28;99923;-75
2023/12/21 11:00:21;;;;;;;4.05;1.50;;;;;;;;;;4961427;28;101593;-75
2023/12/21 11:02:48;;;;;;;7.22;2.50;;;;;;;;;;4977725;28;100046;-73
2023/12/21 11:05:20;;;;;;;3.00;1.10;;;;;;;;;;4967662;28;98462;-75
2023/12/21 11:07:50;;;;;;;6.77;1.77;;;;;;;;;;4969475;28;99667;-75
2023/12/21 11:10:19;;;;;;;4.85;1.85;;;;;;;;;;4958179;28;98692;-75
2023/12/21 11:12:45;;;;;;;4.82;1.55;;;;;;;;;;4972350;28;98457;-75
2023/12/21 11:15:18;;;;;;;4.50;1.45;;;;;;;;;;4988584;28;98555;-75
2023/12/21 11:17:55;;;;;;;14.33;2.03;;;;;;;;;;4984903;28;99395;-75
2023/12/21 11:20:24;;;;;;;17.33;2.10;;;;;;;;;;4987475;28;99262;-74
2023/12/21 11:23:05;;;;;;;5.43;1.75;;;;;;;;;;4949499;28;100550;-74
2023/12/21 11:25:31;;;;;;;5.47;1.88;;;;;;;;;;4949537;28;98234;-75
2023/12/21 11:27:59;;;;;;;6.38;1.80;;;;;;;;;;4949267;28;98813;-77
2023/12/21 11:30:29;;;;;;;4.43;1.35;;;;;;;;;;4961680;28;100078;-74
2023/12/21 11:33:06;;;;;;;4.13;1.40;;;;;;;;;;4977286;28;98314;-75
2023/12/21 11:35:33;;;;;;;7.30;2.00;;;;;;;;;;4986827;28;100318;-76
2023/12/21 11:38:00;;;;;;;5.45;1.13;;;;;;;;;;4988782;28;99962;-74
2023/12/21 11:40:28;;;;;;;6.28;2.70;;;;;;;;;;4991313;28;98370;-76
2023/12/21 11:42:56;;;;;;;5.50;1.30;;;;;;;;;;4988499;28;99943;-74
2023/12/21 11:45:23;;;;;;;6.90;2.83;;;;;;;;;;4988300;28;98283;-73
2023/12/21 11:47:52;;;;;;;7.25;1.63;;;;;;;;;;4982103;28;99474;-73
2023/12/21 11:50:19;;;;;;;3.47;1.08;;;;;;;;;;4949250;28;99064;-75
2023/12/21 11:52:46;;;;;;;4.10;1.77;;;;;;;;;;4949594;28;98253;-76
2023/12/21 11:55:24;;;;;;;6.68;2.05;;;;;;;;;;4948594;28;99597;-74
2023/12/21 11:58:05;;;;;;;6.65;1.40;;;;;;;;;;4973399;28;100210;-74
2023/12/21 12:00:32;;;;;;;9.07;1.75;;;;;;;;;;4948570;28;98134;-72
2023/12/21 12:02:59;;;;;;;3.72;0.98;;;;;;;;;;4957660;28;98728;-73
2023/12/21 12:05:28;;;;;;;8.77;1.73;;;;;;;;;;4948657;28;98238;-73
2023/12/21 12:07:54;;;;;;;6.40;1.67;;;;;;;;;;4949540;28;98930;-74
2023/12/21 12:10:22;;;;;;;5.70;1.58;;;;;;;;;;4969293;28;100753;-74
2023/12/21 12:12:52;;;;;;;2.97;1.30;;;;;;;;;;4973664;28;98209;-74
2023/12/21 12:15:19;;;;;;;5.20;1.85;;;;;;;;;;4967765;28;98713;-74
2023/12/21 12:17:46;;;;;;;3.80;1.30;;;;;;;;;;4967561;28;99994;-75
2023/12/21 12:20:15;;;;;;;2.97;1.38;;;;;;;;;;4987818;28;98082;-75
2023/12/21 12:22:43;;;;;;;6.50;1.75;;;;;;;;;;4988040;28;98588;-72
2023/12/21 12:25:19;;;;;;;4.47;1.58;;;;;;;;;;4989417;28;101070;-75
2023/12/21 12:27:50;;;;;;;5.40;1.77;;;;;;;;;;4987312;28;98603;-74
2023/12/21 12:30:18;;;;;;;9.15;1.92;;;;;;;;;;4971016;28;99239;-74
2023/12/21 12:32:50;;;;;;;14.63;2.92;;;;;;;;;;4971330;28;98253;-73
2023/12/21 12:35:20;;;;;;;8.35;1.85;;;;;;;;;;4967970;28;98481;-74
2023/12/21 12:37:50;;;;;;;5.20;1.58;;;;;;;;;;4967299;28;101311;-73
2023/12/21 12:40:21;;;;;;;;;;;;;;;;;;4969721;28;98649;-73
2023/12/21 12:42:48;;;;;;;10.65;2.30;;;;;;;;;;4968546;28;125745;-76
2023/12/21 12:45:16;;;;;;;8.48;2.15;;;;;;;;;;4969921;28;98969;-76
2023/12/21 12:47:43;;;;;;;8.13;1.77;;;;;;;;;;4968804;28;98468;-75
2023/12/21 12:50:11;;;;;;;4.25;1.02;;;;;;;;;;4966809;28;100221;-74
2023/12/21 12:52:38;;;;;;;3.90;1.70;;;;;;;;;;4987497;28;98015;-74
2023/12/21 12:55:07;;;;;;;7.43;2.20;;;;;;;;;;4987522;28;99571;-75
2023/12/21 12:57:33;;;;;;;8.75;1.90;;;;;;;;;;4982037;28;100005;-74
2023/12/21 13:00:00;;;;;;;5.88;1.38;;;;;;;;;;4968021;28;98744;-74
2023/12/21 13:02:28;;;;;;;6.82;1.42;;;;;;;;;;4967648;28;99665;-75
2023/12/21 13:04:55;;;;;;;8.65;1.88;;;;;;;;;;4966947;28;99020;-75
2023/12/21 13:07:22;;;;;;;4.05;1.60;;;;;;;;;;4976241;28;98137;-74
2023/12/21 13:09:51;;;;;;;9.48;2.20;;;;;;;;;;4987346;28;99119;-76
2023/12/21 13:12:36;;;;;;;3.80;1.80;;;;;;;;;;4987037;28;98302;-75
2023/12/21 13:15:04;;;;;;;10.80;2.00;;;;;;;;;;4986804;28;99552;-74
2023/12/21 13:17:31;;;;;;;11.88;2.13;;;;;;;;;;4987542;28;99360;-74
2023/12/21 13:20:00;;;;;;;11.15;2.42;;;;;;;;;;4987076;28;98304;-74
2023/12/21 13:22:27;;;;;;;12.57;2.95;;;;;;;;;;4987072;28;99810;-76
2023/12/21 13:24:55;;;;;;;8.82;2.60;;;;;;;;;;4987367;28;99926;-73
2023/12/21 13:27:22;;;;;;;11.32;2.42;;;;;;;;;;4984059;28;98462;-74
2023/12/21 13:29:51;;;;;;;12.80;2.58;;;;;;;;;;4973460;28;101144;-77
2023/12/21 13:32:18;;;;;;;6.07;2.05;;;;;;;;;;4967610;28;98485;-77
2023/12/21 13:34:44;;;;;;;17.35;2.28;;;;;;;;;;4987431;28;99866;-75
2023/12/21 13:37:12;;;;;;;9.32;2.20;;;;;;;;;;4982666;28;99958;-74
2023/12/21 13:39:40;;;;;;;11.43;1.50;;;;;;;;;;4953192;28;98244;-74
2023/12/21 13:42:09;;;;;;;11.88;3.13;;;;;;;;;;4967737;28;99407;-75
2023/12/21 13:44:36;;;;;;;12.90;2.42;;;;;;;;;;4963940;28;100278;-77
2023/12/21 13:47:04;;;;;;;14.98;2.95;;;;;;;;;;4950747;28;98240;-75
2023/12/21 13:49:30;;;;;;;11.32;2.03;;;;;;;;;;4980781;28;98404;-75
2023/12/21 13:51:57;;;;;;;18.33;3.15;;;;;;;;;;4973480;28;99931;-75
2023/12/21 13:54:24;;;;;;;8.07;1.90;;;;;;;;;;4969496;28;99639;-74
2023/12/21 13:56:50;;;;;;;12.60;2.13;;;;;;;;;;4970976;28;99687;-74
2023/12/21 13:59:33;;;;;;;11.18;2.78;;;;;;;;;;4952400;28;98251;-75
2023/12/21 14:02:02;;;;;;;24.20;4.05;;;;;;;;;;4962785;28;99578;-74
2023/12/21 14:04:28;;;;;;;9.10;2.67;;;;;;;;;;4985430;28;100144;-74
2023/12/21 14:06:56;;;;;;;10.68;2.47;;;;;;;;;;4980216;28;98630;-74
2023/12/21 14:09:24;;;;;;;19.92;4.20;;;;;;;;;;4975957;28;99059;-75
2023/12/21 14:11:54;;;;;;;20.42;3.35;;;;;;;;;;4970434;28;98015;-74
2023/12/21 14:14:21;;;;;;;19.77;3.45;;;;;;;;;;4972329;28;99514;-74
2023/12/21 14:16:49;;;;;;;8.60;2.60;;;;;;;;;;4968953;28;99287;-74
2023/12/21 14:19:17;;;;;;;7.43;2.30;;;;;;;;;;4969652;28;98153;-75
2023/12/21 14:21:43;;;;;;;6.78;2.83;;;;;;;;;;4967987;28;99582;-73
2023/12/21 14:24:10;;;;;;;8.27;2.47;;;;;;;;;;4973197;28;98902;-74
2023/12/21 14:26:36;;;;;;;18.25;5.35;;;;;;;;;;4989912;28;98364;-73
2023/12/21 14:29:04;;;;;;;15.77;4.22;;;;;;;;;;4969151;28;99470;-73
2023/12/21 14:31:31;;;;;;;22.75;3.58;;;;;;;;;;4969729;28;99915;-74
2023/12/21 14:33:58;;;;;;;30.30;4.35;;;;;;;;;;4962588;28;98305;-73
2023/12/21 14:36:24;;;;;;;13.75;2.88;;;;;;;;;;4953318;28;100172;-73
2023/12/21 14:38:52;;;;;;;17.20;3.95;;;;;;;;;;4952303;28;99290;-73